Judi M. — WCX8376 — position and weather

sailwx.info

Track history (hours):
 
Tides and Currents Weather Stations Pressure Air Temp Water Temp Dewpoint Dewpoint Depression Visibility Wind Speed Wind Dir Waves Ship Positions

Judi M.

Owner: MANKE TUG & BARGE CO INC, SHELTON, WA. More information available from US FCC via Universal Licensing System and Coast Guard Vessel Documentation Center.

Last reported at 2015-Sep-03 01:33 UTC. Time now 2015-Sep-03 02:31 UTC.
Position N 47°34' W 122°22'.

Length 29 m; draft 4 m.

Type: Tow > 200 m length. MMSI: 366740920.

Date/timePositionNaut miles runAvg speedWind from/ knotsBaromVisibWave heightAir tempDewpointWater temp
2015-Sep-03 01:33N 47°34' W 122°22'0 0.0
2015-Sep-03 01:32N 47°34' W 122°22'0 0.0
2015-Sep-03 00:33N 47°34' W 122°22'0 0.0
2015-Sep-03 00:32N 47°34' W 122°22'0 0.0
2015-Sep-02 23:33N 47°34' W 122°22'0 0.0
2015-Sep-02 23:32N 47°34' W 122°22'0 0.0
2015-Sep-02 22:33N 47°34' W 122°22'0 0.0
2015-Sep-02 22:32N 47°34' W 122°22'0 0.0
2015-Sep-02 21:33N 47°34' W 122°22'0 0.0
2015-Sep-02 21:31N 47°34' W 122°22'0 0.0
2015-Sep-02 20:33N 47°34' W 122°22'0 0.0
2015-Sep-02 20:31N 47°34' W 122°22'0 0.0
2015-Sep-02 19:33N 47°34' W 122°22'0 0.0
2015-Sep-02 19:25N 47°34' W 122°22'0 0.0
2015-Sep-02 18:33N 47°34' W 122°22'0 0.0
2015-Sep-02 18:30N 47°34' W 122°22'0 0.0
2015-Sep-02 17:33N 47°34' W 122°22'0 0.0
2015-Sep-02 17:25N 47°34' W 122°22'0 0.0
2015-Sep-02 16:33N 47°34' W 122°22'0 0.0
2015-Sep-02 16:23N 47°34' W 122°22'2 2.5
2015-Sep-02 15:33N 47°36' W 122°23'0 3.5
2015-Sep-02 15:33N 47°36' W 122°23'6 5.8
2015-Sep-02 14:33N 47°41' W 122°28'0 6.1
2015-Sep-02 14:32N 47°41' W 122°28'6 6.7
2015-Sep-02 13:33N 47°48' W 122°27'1 6.3
2015-Sep-02 13:21N 47°49' W 122°28'6 7.1
2015-Sep-02 12:33N 47°54' W 122°30'1 6.9
2015-Sep-02 12:26N 47°55' W 122°30'7 8.2
2015-Sep-02 11:33N 48°00' W 122°38'9 8.2
2015-Sep-02 10:27N 48°08' W 122°43'0 7.7
2015-Sep-02 10:25N 48°09' W 122°44'7 7.6
2015-Sep-02 09:33N 48°12' W 122°52'1 5.7
2015-Sep-02 09:20N 48°14' W 122°52'5 6.2
2015-Sep-02 08:31N 48°17' W 122°57'3 6.7
2015-Sep-02 08:05N 48°20' W 122°60'4 7.4
2015-Sep-02 07:33N 48°23' W 123°02'8 8.3
2015-Sep-02 06:33N 48°30' W 123°10'9 8.9
2015-Sep-02 05:33N 48°38' W 123°14'8 7.9
2015-Sep-02 04:33N 48°46' W 123°19'7 6.9
2015-Sep-02 03:33N 48°52' W 123°24'7 7.1
2015-Sep-02 02:33N 48°56' W 123°33'4 4.0
2015-Sep-02 01:33N 48°53' W 123°37'1 1.2
2015-Sep-02 00:33N 48°52' W 123°39'0 0.0
2015-Sep-01 23:33N 48°52' W 123°39'0 0.0
2015-Sep-01 22:33N 48°52' W 123°39'0 0.0
2015-Sep-01 21:33N 48°52' W 123°39'0 0.0
2015-Sep-01 20:33N 48°52' W 123°39'0 0.0
2015-Sep-01 19:33N 48°52' W 123°39'0 0.0
2015-Sep-01 18:33N 48°52' W 123°39'0 0.0
2015-Sep-01 17:33N 48°52' W 123°39'0 0.0
2015-Sep-01 16:32N 48°52' W 123°39'0 0.0
2015-Sep-01 15:33N 48°52' W 123°39'0 0.0
2015-Sep-01 14:33N 48°52' W 123°39'0 0.0
2015-Sep-01 13:33N 48°52' W 123°39'2 1.6
2015-Sep-01 12:33N 48°53' W 123°36'4 3.6
2015-Sep-01 11:33N 48°55' W 123°32'8 8.2
2015-Sep-01 10:33N 48°51' W 123°22'8 7.9
2015-Sep-01 09:31N 48°43' W 123°17'8 8.2
2015-Sep-01 08:33N 48°36' W 123°13'6 6.0
2015-Sep-01 07:33N 48°30' W 123°10'4 4.3
2015-Sep-01 06:33N 48°27' W 123°06'5 5.3
2015-Sep-01 05:33N 48°23' W 123°00'4 5.5
2015-Sep-01 04:53N 48°20' W 122°58'3 6.0
2015-Sep-01 04:27N 48°17' W 122°56'7 7.1
2015-Sep-01 03:26N 48°12' W 122°48'1 8.1
2015-Sep-01 03:18N 48°12' W 122°47'9 7.8
2015-Sep-01 02:08N 48°05' W 122°38'4 6.7
2015-Sep-01 01:33N 48°01' W 122°36'3 6.6
2015-Sep-01 01:07N 47°58' W 122°34'4 7.3
2015-Sep-01 00:33N 47°56' W 122°30'4 7.2
2015-Aug-31 23:58N 47°52' W 122°28'3 8.2
2015-Aug-31 23:33N 47°49' W 122°26'0 6.2
2015-Aug-31 23:33N 47°49' W 122°26'8 8.2
2015-Aug-31 22:33N 47°40' W 122°27'0 5.3
2015-Aug-31 22:32N 47°40' W 122°27'7 7.0
2015-Aug-31 21:33N 47°35' W 122°22'0 1.6
2015-Aug-31 21:32N 47°34' W 122°22'  
2015-Aug-29 07:34N 47°35' W 122°22'4 4.3
2015-Aug-29 06:34N 47°38' W 122°26'6 5.8
2015-Aug-29 05:34N 47°43' W 122°28'6 6.3
2015-Aug-29 04:34N 47°50' W 122°28'6 6.0
2015-Aug-29 03:34N 47°55' W 122°31'5 4.8
2015-Aug-29 02:33N 47°58' W 122°36'7 0.4
2015-Aug-28 11:13N 48°05' W 122°39'6 7.7
2015-Aug-28 10:30N 47°60' W 122°36'7 7.2
2015-Aug-28 09:33N 47°55' W 122°29'7 7.5
2015-Aug-28 08:34N 47°47' W 122°26'7 7.5
2015-Aug-28 07:34N 47°40' W 122°27'7 6.5
2015-Aug-28 06:34N 47°35' W 122°22'  
Track history (hours):
 
Tides and Currents Weather Stations Pressure Air Temp Water Temp Dewpoint Dewpoint Depression Visibility Wind Speed Wind Dir Waves Ship Positions

Judi M.

Owner: MANKE TUG & BARGE CO INC, SHELTON, WA. More information available from US FCC via Universal Licensing System and Coast Guard Vessel Documentation Center.

Last reported at 2015-Sep-03 01:33 UTC. Time now 2015-Sep-03 02:31 UTC.
Position N 47°34' W 122°22'.

Length 29 m; draft 4 m.

Type: Tow > 200 m length. MMSI: 366740920.

Date/timePositionNaut miles runAvg speedWind from/ knotsBaromVisibWave heightAir tempDewpointWater temp
2015-Sep-03 01:33N 47°34' W 122°22'0 0.0
2015-Sep-03 01:32N 47°34' W 122°22'0 0.0
2015-Sep-03 00:33N 47°34' W 122°22'0 0.0
2015-Sep-03 00:32N 47°34' W 122°22'0 0.0
2015-Sep-02 23:33N 47°34' W 122°22'0 0.0
2015-Sep-02 23:32N 47°34' W 122°22'0 0.0
2015-Sep-02 22:33N 47°34' W 122°22'0 0.0
2015-Sep-02 22:32N 47°34' W 122°22'0 0.0
2015-Sep-02 21:33N 47°34' W 122°22'0 0.0
2015-Sep-02 21:31N 47°34' W 122°22'0 0.0
2015-Sep-02 20:33N 47°34' W 122°22'0 0.0
2015-Sep-02 20:31N 47°34' W 122°22'0 0.0
2015-Sep-02 19:33N 47°34' W 122°22'0 0.0
2015-Sep-02 19:25N 47°34' W 122°22'0 0.0
2015-Sep-02 18:33N 47°34' W 122°22'0 0.0
2015-Sep-02 18:30N 47°34' W 122°22'0 0.0
2015-Sep-02 17:33N 47°34' W 122°22'0 0.0
2015-Sep-02 17:25N 47°34' W 122°22'0 0.0
2015-Sep-02 16:33N 47°34' W 122°22'0 0.0
2015-Sep-02 16:23N 47°34' W 122°22'2 2.5
2015-Sep-02 15:33N 47°36' W 122°23'0 3.5
2015-Sep-02 15:33N 47°36' W 122°23'6 5.8
2015-Sep-02 14:33N 47°41' W 122°28'0 6.1
2015-Sep-02 14:32N 47°41' W 122°28'6 6.7
2015-Sep-02 13:33N 47°48' W 122°27'1 6.3
2015-Sep-02 13:21N 47°49' W 122°28'6 7.1
2015-Sep-02 12:33N 47°54' W 122°30'1 6.9
2015-Sep-02 12:26N 47°55' W 122°30'7 8.2
2015-Sep-02 11:33N 48°00' W 122°38'9 8.2
2015-Sep-02 10:27N 48°08' W 122°43'0 7.7
2015-Sep-02 10:25N 48°09' W 122°44'7 7.6
2015-Sep-02 09:33N 48°12' W 122°52'1 5.7
2015-Sep-02 09:20N 48°14' W 122°52'5 6.2
2015-Sep-02 08:31N 48°17' W 122°57'3 6.7
2015-Sep-02 08:05N 48°20' W 122°60'4 7.4
2015-Sep-02 07:33N 48°23' W 123°02'8 8.3
2015-Sep-02 06:33N 48°30' W 123°10'9 8.9
2015-Sep-02 05:33N 48°38' W 123°14'8 7.9
2015-Sep-02 04:33N 48°46' W 123°19'7 6.9
2015-Sep-02 03:33N 48°52' W 123°24'7 7.1
2015-Sep-02 02:33N 48°56' W 123°33'4 4.0
2015-Sep-02 01:33N 48°53' W 123°37'1 1.2
2015-Sep-02 00:33N 48°52' W 123°39'0 0.0
2015-Sep-01 23:33N 48°52' W 123°39'0 0.0
2015-Sep-01 22:33N 48°52' W 123°39'0 0.0
2015-Sep-01 21:33N 48°52' W 123°39'0 0.0
2015-Sep-01 20:33N 48°52' W 123°39'0 0.0
2015-Sep-01 19:33N 48°52' W 123°39'0 0.0
2015-Sep-01 18:33N 48°52' W 123°39'0 0.0
2015-Sep-01 17:33N 48°52' W 123°39'0 0.0
2015-Sep-01 16:32N 48°52' W 123°39'0 0.0
2015-Sep-01 15:33N 48°52' W 123°39'0 0.0
2015-Sep-01 14:33N 48°52' W 123°39'0 0.0
2015-Sep-01 13:33N 48°52' W 123°39'2 1.6
2015-Sep-01 12:33N 48°53' W 123°36'4 3.6
2015-Sep-01 11:33N 48°55' W 123°32'8 8.2
2015-Sep-01 10:33N 48°51' W 123°22'8 7.9
2015-Sep-01 09:31N 48°43' W 123°17'8 8.2
2015-Sep-01 08:33N 48°36' W 123°13'6 6.0
2015-Sep-01 07:33N 48°30' W 123°10'4 4.3
2015-Sep-01 06:33N 48°27' W 123°06'5 5.3
2015-Sep-01 05:33N 48°23' W 123°00'4 5.5
2015-Sep-01 04:53N 48°20' W 122°58'3 6.0
2015-Sep-01 04:27N 48°17' W 122°56'7 7.1
2015-Sep-01 03:26N 48°12' W 122°48'1 8.1
2015-Sep-01 03:18N 48°12' W 122°47'9 7.8
2015-Sep-01 02:08N 48°05' W 122°38'4 6.7
2015-Sep-01 01:33N 48°01' W 122°36'3 6.6
2015-Sep-01 01:07N 47°58' W 122°34'4 7.3
2015-Sep-01 00:33N 47°56' W 122°30'4 7.2
2015-Aug-31 23:58N 47°52' W 122°28'3 8.2
2015-Aug-31 23:33N 47°49' W 122°26'0 6.2
2015-Aug-31 23:33N 47°49' W 122°26'8 8.2
2015-Aug-31 22:33N 47°40' W 122°27'0 5.3
2015-Aug-31 22:32N 47°40' W 122°27'7 7.0
2015-Aug-31 21:33N 47°35' W 122°22'0 1.6
2015-Aug-31 21:32N 47°34' W 122°22'  
2015-Aug-29 07:34N 47°35' W 122°22'4 4.3
2015-Aug-29 06:34N 47°38' W 122°26'6 5.8
2015-Aug-29 05:34N 47°43' W 122°28'6 6.3
2015-Aug-29 04:34N 47°50' W 122°28'6 6.0
2015-Aug-29 03:34N 47°55' W 122°31'5 4.8
2015-Aug-29 02:33N 47°58' W 122°36'7 0.4
2015-Aug-28 11:13N 48°05' W 122°39'6 7.7
2015-Aug-28 10:30N 47°60' W 122°36'7 7.2
2015-Aug-28 09:33N 47°55' W 122°29'7 7.5
2015-Aug-28 08:34N 47°47' W 122°26'7 7.5
2015-Aug-28 07:34N 47°40' W 122°27'7 6.5
2015-Aug-28 06:34N 47°35' W 122°22'  

Dump ship's entire track history